Time;durP1;ratioP1;P1;durP2;ratioP2;P2;SDS_P1;SDS_P2;PMS_P1;PMS_P2;Temp;Humidity;BMP_temperature;BMP_pressure;BME280_temperature;BME280_humidity;BME280_pressure;Samples;Min_cycle;Max_cycle;Signal;HPM_P1;HPM_P2
2023/04/28 00:02:02;;;;;;;8.68;4.85;;;;;;;;;;5069298;28;20055;-56
2023/04/28 00:04:28;;;;;;;10.23;4.45;;;7.30;99.90;;;;;;5072461;28;20115;-57
2023/04/28 00:06:54;;;;;;;8.27;4.70;;;7.20;99.90;;;;;;5071364;28;20119;-56
2023/04/28 00:09:20;;;;;;;9.02;4.63;;;;;;;;;;5071103;28;20127;-56
2023/04/28 00:11:46;;;;;;;8.05;4.60;;;;;;;;;;5071332;28;20128;-55
2023/04/28 00:14:12;;;;;;;8.73;4.68;;;7.20;99.90;;;;;;5071946;28;20112;-55
2023/04/28 00:16:38;;;;;;;8.82;4.70;;;;;;;;;;5079578;28;20262;-56
2023/04/28 00:19:05;;;;;;;9.63;4.78;;;;;;;;;;5072277;28;20512;-56
2023/04/28 00:21:30;;;;;;;7.75;4.57;;;7.10;99.90;;;;;;5072302;28;20033;-56
2023/04/28 00:23:57;;;;;;;10.18;5.20;;;;;;;;;;5071142;28;20044;-56
2023/04/28 00:26:23;;;;;;;7.70;4.40;;;;;;;;;;5070409;28;20432;-55
2023/04/28 00:28:49;;;;;;;10.55;5.30;;;;;;;;;;5071329;28;20395;-55
2023/04/28 00:31:15;;;;;;;10.43;5.38;;;;;;;;;;5071965;28;20048;-55
2023/04/28 00:33:42;;;;;;;7.50;4.68;;;7.00;99.90;;;;;;5070712;28;20048;-60
2023/04/28 00:36:08;;;;;;;8.82;4.72;;;;;;;;;;5071117;28;20051;-56
2023/04/28 00:38:34;;;;;;;10.02;5.93;;;7.00;99.90;;;;;;5071746;28;20039;-56
2023/04/28 00:41:00;;;;;;;9.85;5.25;;;;;;;;;;5071682;28;20028;-56
2023/04/28 00:43:26;;;;;;;8.65;5.05;;;7.00;99.90;;;;;;5071776;28;20048;-56
2023/04/28 00:45:52;;;;;;;9.18;5.18;;;7.00;99.90;;;;;;5070819;28;20413;-55
2023/04/28 00:48:18;;;;;;;9.50;4.97;;;;;;;;;;5070424;28;20053;-56
2023/04/28 00:50:46;;;;;;;9.95;5.38;;;7.00;99.90;;;;;;5075036;28;20056;-56
2023/04/28 00:53:12;;;;;;;9.63;5.28;;;;;;;;;;5071029;28;20121;-56
2023/04/28 00:55:39;;;;;;;8.77;5.55;;;;;;;;;;5070690;28;20036;-56
2023/04/28 00:58:06;;;;;;;8.93;5.00;;;6.90;99.90;;;;;;5070967;28;20075;-56
2023/04/28 01:00:32;;;;;;;12.15;5.38;;;7.00;99.90;;;;;;5069948;28;20037;-55
2023/04/28 01:02:58;;;;;;;9.10;5.50;;;;;;;;;;5070821;28;20464;-55
2023/04/28 01:05:28;;;;;;;10.98;6.88;;;6.90;99.90;;;;;;5070636;28;20029;-56
2023/04/28 01:07:54;;;;;;;9.15;5.20;;;7.00;99.90;;;;;;5070742;28;20045;-56
2023/04/28 01:10:20;;;;;;;10.13;5.50;;;;;;;;;;5074563;28;20089;-56
2023/04/28 01:12:46;;;;;;;11.90;5.88;;;7.00;99.90;;;;;;5070984;28;20555;-54
2023/04/28 01:15:17;;;;;;;11.23;5.32;;;6.80;99.90;;;;;;5070369;28;20024;-56
2023/04/28 01:17:43;;;;;;;10.38;5.90;;;7.00;99.90;;;;;;5069463;28;20076;-55
2023/04/28 01:20:10;;;;;;;9.65;5.82;;;7.00;99.90;;;;;;5070467;28;20036;-55
2023/04/28 01:22:35;;;;;;;9.40;5.32;;;7.00;99.90;;;;;;5070401;28;20102;-57
2023/04/28 01:25:02;;;;;;;9.27;5.45;;;7.00;99.90;;;;;;5079167;28;20036;-56
2023/04/28 01:27:28;;;;;;;10.68;5.30;;;;;;;;;;5070326;28;20398;-55
2023/04/28 01:29:56;;;;;;;10.20;5.60;;;;;;;;;;5070240;28;20048;-56
2023/04/28 01:32:21;;;;;;;9.60;5.55;;;7.00;99.90;;;;;;5070409;28;20079;-56
2023/04/28 01:34:47;;;;;;;10.10;5.38;;;7.00;99.90;;;;;;5070069;28;20076;-56
2023/04/28 01:37:13;;;;;;;10.30;5.75;;;;;;;;;;5070142;28;20197;-56
2023/04/28 01:39:39;;;;;;;8.75;5.30;;;;;;;;;;5052267;28;20093;-57
2023/04/28 01:42:05;;;;;;;10.23;5.30;;;7.00;99.90;;;;;;5069914;28;20037;-56
2023/04/28 01:44:30;;;;;;;10.10;5.80;;;7.00;99.90;;;;;;5068776;28;20040;-55
2023/04/28 01:46:56;;;;;;;8.90;5.20;;;7.00;99.90;;;;;;5068305;28;20033;-55
2023/04/28 01:49:22;;;;;;;9.93;5.90;;;6.90;99.90;;;;;;5070291;28;20064;-54
2023/04/28 01:51:48;;;;;;;10.45;6.43;;;;;;;;;;5068426;28;20097;-55
2023/04/28 01:54:15;;;;;;;13.23;5.97;;;;;;;;;;5077154;28;20094;-55
2023/04/28 01:56:41;;;;;;;11.45;5.95;;;;;;;;;;5069646;28;20058;-55
2023/04/28 01:59:07;;;;;;;10.88;6.15;;;;;;;;;;5068528;28;20036;-55
2023/04/28 02:01:32;;;;;;;13.02;5.68;;;6.90;99.90;;;;;;5069850;28;20094;-54
2023/04/28 02:03:58;;;;;;;10.43;5.63;;;6.90;99.90;;;;;;5069660;28;20024;-56
2023/04/28 02:06:24;;;;;;;11.43;5.55;;;;;;;;;;5051593;28;20067;-56
2023/04/28 02:08:49;;;;;;;13.88;6.05;;;6.80;99.90;;;;;;5069773;28;20145;-56
2023/04/28 02:11:15;;;;;;;9.88;6.20;;;6.90;99.90;;;;;;5068075;28;20029;-56
2023/04/28 02:13:41;;;;;;;10.98;5.38;;;6.90;99.90;;;;;;5070089;28;20036;-56
2023/04/28 02:16:06;;;;;;;9.98;5.68;;;6.80;99.90;;;;;;5067742;28;20505;-56
2023/04/28 02:18:32;;;;;;;11.27;5.57;;;6.80;99.90;;;;;;5064605;28;20108;-56
2023/04/28 02:20:58;;;;;;;9.85;5.22;;;;;;;;;;5071577;28;20041;-55
2023/04/28 02:23:23;;;;;;;9.27;5.53;;;6.90;99.90;;;;;;5069413;28;20044;-56
2023/04/28 02:25:49;;;;;;;12.25;6.10;;;6.90;99.90;;;;;;5071091;28;20040;-56
2023/04/28 02:28:15;;;;;;;9.48;6.05;;;;;;;;;;5069601;28;20032;-52
2023/04/28 02:30:43;;;;;;;16.27;6.90;;;7.50;99.90;;;;;;5069844;28;20044;-54
2023/04/28 02:33:08;;;;;;;10.05;6.13;;;7.00;99.90;;;;;;5068331;28;20036;-55
2023/04/28 02:35:34;;;;;;;14.48;6.50;;;;;;;;;;5065306;28;20082;-53
2023/04/28 02:38:00;;;;;;;9.57;5.60;;;6.90;99.90;;;;;;5077909;28;20040;-56
2023/04/28 02:40:25;;;;;;;12.73;6.00;;;7.00;99.90;;;;;;5069750;28;20115;-57
2023/04/28 02:42:51;;;;;;;11.82;6.25;;;;;;;;;;5069658;28;20071;-56
2023/04/28 02:45:17;;;;;;;10.32;6.60;;;6.90;99.90;;;;;;5069232;28;20082;-56
2023/04/28 02:47:43;;;;;;;11.13;6.30;;;;;;;;;;5069565;28;20048;-55
2023/04/28 02:50:10;;;;;;;13.00;6.07;;;;;;;;;;5075277;28;20045;-54
2023/04/28 02:52:36;;;;;;;9.50;5.45;;;;;;;;;;5069650;28;20032;-55
2023/04/28 02:55:02;;;;;;;9.38;5.70;;;6.90;99.90;;;;;;5069471;28;20036;-56
2023/04/28 02:57:28;;;;;;;9.85;5.97;;;;;;;;;;5073012;28;20040;-56
2023/04/28 02:59:54;;;;;;;10.63;5.82;;;6.90;99.90;;;;;;5055450;28;20123;-56
2023/04/28 03:02:21;;;;;;;9.95;6.03;;;;;;;;;;5066895;28;20037;-56
2023/04/28 03:04:47;;;;;;;13.82;6.30;;;6.80;99.90;;;;;;5073300;28;20418;-56
2023/04/28 03:07:13;;;;;;;10.57;6.20;;;;;;;;;;5072752;28;20048;-58
2023/04/28 03:09:38;;;;;;;12.50;6.80;;;6.80;99.90;;;;;;5073166;28;20036;-56
2023/04/28 03:12:05;;;;;;;11.48;6.75;;;;;;;;;;5071554;28;20165;-56
2023/04/28 03:14:31;;;;;;;9.85;6.13;;;;;;;;;;5073177;28;20490;-56
2023/04/28 03:16:57;;;;;;;17.60;8.07;;;;;;;;;;5072596;28;20052;-56
2023/04/28 03:19:22;;;;;;;10.35;6.57;;;6.80;99.90;;;;;;5071725;28;20033;-55
2023/04/28 03:21:48;;;;;;;13.52;6.70;;;;;;;;;;5072953;28;20062;-56
2023/04/28 03:24:14;;;;;;;14.80;8.07;;;6.90;99.90;;;;;;5072643;28;20079;-55
2023/04/28 03:26:39;;;;;;;12.73;7.40;;;6.90;99.90;;;;;;5071049;28;20047;-53
2023/04/28 03:29:05;;;;;;;11.80;6.72;;;;;;;;;;5056150;28;20044;-55
2023/04/28 03:31:31;;;;;;;13.40;7.45;;;6.90;99.90;;;;;;5076975;28;20447;-55
2023/04/28 03:33:58;;;;;;;12.85;7.20;;;;;;;;;;5072361;28;20032;-56
2023/04/28 03:36:24;;;;;;;12.10;7.45;;;;;;;;;;5072606;28;20521;-52
2023/04/28 03:38:50;;;;;;;12.93;6.97;;;;;;;;;;5072857;28;20452;-53
2023/04/28 03:41:16;;;;;;;19.17;8.45;;;7.00;99.90;;;;;;5071380;28;20049;-56
2023/04/28 03:43:42;;;;;;;11.30;7.03;;;6.90;99.90;;;;;;5080698;28;20040;-56
2023/04/28 03:46:07;;;;;;;12.00;7.07;;;7.00;99.90;;;;;;5080384;28;20029;-57
2023/04/28 03:48:33;;;;;;;12.38;6.90;;;;;;;;;;5071020;28;20052;-56
2023/04/28 03:50:59;;;;;;;14.68;8.00;;;7.20;99.90;;;;;;5072132;28;20467;-56
2023/04/28 03:53:24;;;;;;;13.77;8.20;;;7.20;99.90;;;;;;5072326;28;20035;-56
2023/04/28 03:55:50;;;;;;;12.85;7.32;;;7.00;99.90;;;;;;5072331;28;20044;-56
2023/04/28 03:58:16;;;;;;;14.05;8.77;;;7.10;99.90;;;;;;5070756;28;20520;-55
2023/04/28 04:00:41;;;;;;;14.68;8.52;;;;;;;;;;5072474;28;20599;-56
2023/04/28 04:03:07;;;;;;;14.07;8.35;;;;;;;;;;5072809;28;20040;-55
2023/04/28 04:05:33;;;;;;;14.95;7.95;;;;;;;;;;5071855;28;20382;-56
2023/04/28 04:08:01;;;;;;;13.85;8.15;;;;;;;;;;5072011;28;20036;-56
2023/04/28 04:10:27;;;;;;;13.60;8.73;;;;;;;;;;5069362;28;20409;-52
2023/04/28 04:12:52;;;;;;;13.48;7.93;;;7.10;99.90;;;;;;5068913;28;20477;-57
2023/04/28 04:15:18;;;;;;;13.95;8.73;;;;;;;;;;5067654;28;20037;-51
2023/04/28 04:17:44;;;;;;;15.18;9.18;;;;;;;;;;5067655;28;20040;-54
2023/04/28 04:20:10;;;;;;;13.68;8.68;;;7.10;99.90;;;;;;5067936;28;20048;-53
2023/04/28 04:22:36;;;;;;;15.70;8.98;;;7.20;99.90;;;;;;5069525;28;20032;-55
2023/04/28 04:25:02;;;;;;;16.15;9.55;;;7.10;99.90;;;;;;5070865;28;20379;-55
2023/04/28 04:27:27;;;;;;;14.80;9.18;;;7.00;99.90;;;;;;5067755;28;20051;-55
2023/04/28 04:29:53;;;;;;;13.85;8.77;;;;;;;;;;5067446;28;20044;-55
2023/04/28 04:32:19;;;;;;;15.45;9.60;;;7.40;99.90;;;;;;5067480;28;20044;-55
2023/04/28 04:34:45;;;;;;;15.20;9.07;;;7.30;99.90;;;;;;5066589;28;20254;-56
2023/04/28 04:37:10;;;;;;;17.55;10.20;;;7.30;99.90;;;;;;5071096;28;20032;-58
2023/04/28 04:39:36;;;;;;;17.60;9.55;;;7.30;99.90;;;;;;5072037;28;20029;-56
2023/04/28 04:42:02;;;;;;;15.60;9.77;;;;;;;;;;5078516;28;20413;-56
2023/04/28 04:44:28;;;;;;;15.05;8.68;;;;;;;;;;5079774;28;20036;-56
2023/04/28 04:46:53;;;;;;;15.95;9.88;;;7.30;99.90;;;;;;5077269;28;20051;-56
2023/04/28 04:49:19;;;;;;;17.52;10.23;;;;;;;;;;5071528;28;20066;-56
2023/04/28 04:51:45;;;;;;;28.85;10.23;;;7.40;99.90;;;;;;5069926;28;20050;-56
2023/04/28 04:54:11;;;;;;;15.48;9.55;;;;;;;;;;5071113;28;20081;-56
2023/04/28 04:56:37;;;;;;;15.65;9.32;;;;;;;;;;5070922;28;20076;-56
2023/04/28 04:59:03;;;;;;;18.75;10.18;;;;;;;;;;5069795;28;20056;-56
2023/04/28 05:01:29;;;;;;;17.92;10.10;;;7.50;99.90;;;;;;5070898;28;20043;-55
2023/04/28 05:03:54;;;;;;;17.17;9.35;;;7.40;99.90;;;;;;5071382;28;20432;-55
2023/04/28 05:06:20;;;;;;;15.48;9.73;;;7.50;99.90;;;;;;5070759;28;20028;-55
2023/04/28 05:08:45;;;;;;;17.05;9.55;;;7.60;99.90;;;;;;5069914;28;20044;-56
2023/04/28 05:11:11;;;;;;;15.57;9.98;;;7.60;99.90;;;;;;5070624;28;20024;-56
2023/04/28 05:13:38;;;;;;;21.45;11.18;;;7.70;99.90;;;;;;5071262;28;20107;-56
2023/04/28 05:16:04;;;;;;;19.77;9.02;;;7.70;99.90;;;;;;5075490;28;20493;-56
2023/04/28 05:18:29;;;;;;;17.20;9.93;;;7.60;99.90;;;;;;5070275;28;20075;-51
2023/04/28 05:20:55;;;;;;;16.48;10.48;;;7.60;99.90;;;;;;5070757;28;20044;-56
2023/04/28 05:23:21;;;;;;;15.07;10.02;;;7.80;99.90;;;;;;5069078;28;20379;-56
2023/04/28 05:25:46;;;;;;;19.33;10.18;;;7.80;99.90;;;;;;5070587;28;20040;-55
2023/04/28 05:28:12;;;;;;;15.45;9.52;;;7.80;99.90;;;;;;5070332;28;20044;-53
2023/04/28 05:30:37;;;;;;;15.90;9.60;;;7.80;99.90;;;;;;5070627;28;20044;-56
2023/04/28 05:33:03;;;;;;;18.67;9.57;;;;;;;;;;5070225;28;20087;-56
2023/04/28 05:35:30;;;;;;;16.38;9.52;;;8.00;99.90;;;;;;5068218;28;20078;-55
2023/04/28 05:37:56;;;;;;;17.20;10.07;;;8.00;99.90;;;;;;5070635;28;20113;-56
2023/04/28 05:40:22;;;;;;;18.58;9.95;;;8.00;99.90;;;;;;5077743;28;20393;-56
2023/04/28 05:42:48;;;;;;;18.42;10.52;;;8.00;99.90;;;;;;5069158;28;20055;-57
2023/04/28 05:45:14;;;;;;;15.55;9.00;;;8.00;99.90;;;;;;5069466;28;20067;-56
2023/04/28 05:47:39;;;;;;;17.77;9.80;;;8.00;99.90;;;;;;5070391;28;20135;-56
2023/04/28 05:50:06;;;;;;;17.25;9.18;;;;;;;;;;5070101;28;20036;-56
2023/04/28 05:52:31;;;;;;;16.95;9.57;;;8.20;99.90;;;;;;5068745;28;20043;-56
2023/04/28 05:54:57;;;;;;;17.33;9.70;;;8.30;99.90;;;;;;5069233;28;20048;-55
2023/04/28 05:57:23;;;;;;;15.93;9.20;;;8.20;99.90;;;;;;5068109;28;20115;-59
2023/04/28 05:59:48;;;;;;;16.13;8.85;;;8.30;99.90;;;;;;5070149;28;20322;-55
2023/04/28 06:02:14;;;;;;;14.52;8.75;;;8.30;99.90;;;;;;5069685;28;20040;-55
2023/04/28 06:04:40;;;;;;;16.42;9.98;;;;;;;;;;5082142;28;20063;-56
2023/04/28 06:07:06;;;;;;;14.82;9.45;;;8.30;99.90;;;;;;5071580;28;20060;-57
2023/04/28 06:09:32;;;;;;;14.52;9.30;;;8.30;99.90;;;;;;5070076;28;20039;-55
2023/04/28 06:11:57;;;;;;;16.83;9.18;;;8.40;99.90;;;;;;5051913;28;20472;-55
2023/04/28 06:14:24;;;;;;;14.80;9.05;;;;;;;;;;5069465;28;20037;-56
2023/04/28 06:16:50;;;;;;;17.38;9.68;;;7.90;99.90;;;;;;5069775;28;20401;-56
2023/04/28 06:19:17;;;;;;;16.83;10.05;;;8.70;99.90;;;;;;5069581;28;20111;-56
2023/04/28 06:21:44;;;;;;;15.05;9.52;;;;;;;;;;5070033;28;20054;-58
2023/04/28 06:24:10;;;;;;;14.75;8.68;;;;;;;;;;5068362;28;20054;-56
2023/04/28 06:26:36;;;;;;;15.48;8.50;;;8.60;99.90;;;;;;5060558;28;20085;-56
2023/04/28 06:29:02;;;;;;;15.93;9.85;;;8.70;99.90;;;;;;5069865;28;20040;-56
2023/04/28 06:31:28;;;;;;;16.98;10.75;;;8.80;99.90;;;;;;5068087;28;20120;-56
2023/04/28 06:33:53;;;;;;;15.52;8.55;;;8.50;99.90;;;;;;5064477;28;20139;-55
2023/04/28 06:36:19;;;;;;;15.32;9.02;;;8.60;99.90;;;;;;5069227;28;20411;-57
2023/04/28 06:38:45;;;;;;;14.48;8.93;;;8.80;99.90;;;;;;5069811;28;20048;-57
2023/04/28 06:41:11;;;;;;;15.95;9.68;;;8.90;99.90;;;;;;5069422;28;20128;-57
2023/04/28 06:43:36;;;;;;;13.30;8.90;;;9.00;99.90;;;;;;5068036;28;20068;-57
2023/04/28 06:46:03;;;;;;;15.35;8.10;;;8.60;99.90;;;;;;5069573;28;20103;-56
2023/04/28 06:48:28;;;;;;;14.57;8.40;;;8.70;99.90;;;;;;5069170;28;20043;-56
2023/04/28 06:50:54;;;;;;;14.88;8.38;;;8.60;99.90;;;;;;5068227;28;20040;-55
2023/04/28 06:53:20;;;;;;;15.20;9.07;;;8.70;99.90;;;;;;5070940;28;20227;-56
2023/04/28 06:55:45;;;;;;;13.68;8.75;;;8.80;99.90;;;;;;5072155;28;20139;-57
2023/04/28 06:58:11;;;;;;;15.82;8.55;;;8.70;99.90;;;;;;5069094;28;20471;-55
2023/04/28 07:00:36;;;;;;;14.30;8.55;;;8.90;99.90;;;;;;5069783;28;20081;-55
2023/04/28 07:03:02;;;;;;;18.55;9.85;;;8.90;99.90;;;;;;5068214;28;20322;-55
2023/04/28 07:05:28;;;;;;;14.70;8.95;;;8.90;99.90;;;;;;5068527;28;20062;-56
2023/04/28 07:07:54;;;;;;;16.23;9.02;;;8.90;99.90;;;;;;5069764;28;20040;-56
2023/04/28 07:10:20;;;;;;;17.35;8.70;;;;;;;;;;5069047;28;20028;-56
2023/04/28 07:12:45;;;;;;;15.45;9.43;;;8.90;99.90;;;;;;5068960;28;20091;-53
2023/04/28 07:15:11;;;;;;;15.85;9.52;;;;;;;;;;5076139;28;20036;-56
2023/04/28 07:17:38;;;;;;;16.20;9.30;;;;;;;;;;5067869;28;20043;-56
2023/04/28 07:20:04;;;;;;;14.07;9.07;;;;;;;;;;5069588;28;20051;-56
2023/04/28 07:22:30;;;;;;;15.57;8.85;;;8.50;99.90;;;;;;5068629;28;20041;-56
2023/04/28 07:24:56;;;;;;;14.82;8.90;;;8.90;99.90;;;;;;5069362;28;20586;-56
2023/04/28 07:27:22;;;;;;;19.65;9.43;;;9.00;99.90;;;;;;5067045;28;20040;-57
2023/04/28 07:29:47;;;;;;;14.18;8.88;;;8.80;99.90;;;;;;5068021;28;20515;-56
2023/04/28 07:32:13;;;;;;;17.45;9.55;;;9.00;99.90;;;;;;5068580;28;20482;-57
2023/04/28 07:34:39;;;;;;;14.32;8.15;;;8.90;99.90;;;;;;5069321;28;20463;-57
2023/04/28 07:37:07;;;;;;;14.13;8.57;;;;;;;;;;5077172;28;20044;-57
2023/04/28 07:39:33;;;;;;;12.93;9.63;;;;;;;;;;5067556;28;20154;-56
2023/04/28 07:42:01;;;;;;;19.27;10.85;;;;;;;;;;5069613;28;20047;-57
2023/04/28 07:44:27;;;;;;;18.25;9.93;;;;;;;;;;5072667;28;20047;-56
2023/04/28 07:46:53;;;;;;;22.73;10.98;;;8.90;99.90;;;;;;5072459;28;20055;-57
2023/04/28 07:49:19;;;;;;;14.57;9.75;;;9.00;99.90;;;;;;5054688;28;20041;-58
2023/04/28 07:51:45;;;;;;;17.50;10.77;;;9.00;99.90;;;;;;5054873;28;20549;-57
2023/04/28 07:54:10;;;;;;;21.33;11.98;;;8.80;99.90;;;;;;5067801;28;20044;-58
2023/04/28 07:56:36;;;;;;;17.13;10.80;;;8.70;99.90;;;;;;5070868;28;20044;-58
2023/04/28 07:59:02;;;;;;;19.80;10.88;;;;;;;;;;5072527;28;20474;-57
2023/04/28 08:01:28;;;;;;;18.65;9.80;;;9.00;99.90;;;;;;5072069;28;20043;-57
2023/04/28 08:03:53;;;;;;;18.20;10.60;;;9.90;99.90;;;;;;5072224;28;20419;-57
2023/04/28 08:06:19;;;;;;;16.02;9.70;;;;;;;;;;5071457;28;20051;-57
2023/04/28 08:08:46;;;;;;;19.38;11.32;;;9.20;99.90;;;;;;5072312;28;20178;-58
2023/04/28 08:11:11;;;;;;;16.60;9.80;;;9.00;99.90;;;;;;5071865;28;20056;-57
2023/04/28 08:13:37;;;;;;;15.10;9.95;;;9.50;99.90;;;;;;5070677;28;20036;-57
2023/04/28 08:16:03;;;;;;;15.98;10.45;;;9.50;99.90;;;;;;5071740;28;20040;-57
2023/04/28 08:18:28;;;;;;;17.85;9.50;;;9.50;99.90;;;;;;5071660;28;20494;-57
2023/04/28 08:20:54;;;;;;;16.02;9.40;;;9.50;99.90;;;;;;5070761;28;20040;-57
2023/04/28 08:23:20;;;;;;;15.02;9.07;;;9.50;99.90;;;;;;5070162;28;20024;-57
2023/04/28 08:25:46;;;;;;;14.63;9.05;;;;;;;;;;5070236;28;20565;-57
2023/04/28 08:28:13;;;;;;;16.48;9.60;;;;;;;;;;5070599;28;20048;-57
2023/04/28 08:30:39;;;;;;;15.80;9.10;;;10.20;99.90;;;;;;5070487;28;20195;-57
2023/04/28 08:33:05;;;;;;;14.35;9.10;;;9.60;99.90;;;;;;5071812;28;20620;-57
2023/04/28 08:35:30;;;;;;;15.77;9.50;;;9.80;99.90;;;;;;5071023;28;20043;-57
2023/04/28 08:37:57;;;;;;;14.45;9.52;;;9.80;99.90;;;;;;5074621;28;20040;-56
2023/04/28 08:40:24;;;;;;;14.52;9.13;;;10.00;99.90;;;;;;5071090;28;20036;-57
2023/04/28 08:42:49;;;;;;;16.45;9.00;;;9.40;99.90;;;;;;5076583;28;20054;-57
2023/04/28 08:45:15;;;;;;;14.32;9.32;;;9.50;99.90;;;;;;5072938;28;20471;-57
2023/04/28 08:47:46;;;;;;;20.92;10.43;;;10.00;99.90;;;;;;5070338;28;20098;-57
2023/04/28 08:50:13;;;;;;;14.68;8.90;;;10.10;99.90;;;;;;5071276;28;20502;-57
2023/04/28 08:52:40;;;;;;;14.60;9.52;;;;;;;;;;5070499;28;20409;-57
2023/04/28 08:55:08;;;;;;;16.13;10.32;;;10.20;99.90;;;;;;5069336;28;20052;-56
2023/04/28 08:57:54;;;;;;;16.30;9.52;;;11.10;99.90;;;;;;5070257;28;20414;-57
2023/04/28 09:00:20;;;;;;;16.73;9.15;;;10.70;99.90;;;;;;5077583;28;20417;-57
2023/04/28 09:02:46;;;;;;;13.60;9.30;;;11.00;99.90;;;;;;5070910;28;20044;-57
2023/04/28 09:05:12;;;;;;;15.50;9.75;;;11.80;99.90;;;;;;5069940;28;20052;-56
2023/04/28 09:07:39;;;;;;;14.57;9.63;;;;;;;;;;5069726;28;20094;-57
2023/04/28 09:10:20;;;;;;;15.55;9.50;;;12.00;99.90;;;;;;5057943;28;20481;-57
2023/04/28 09:12:46;;;;;;;13.93;8.82;;;11.80;99.90;;;;;;5068824;28;20465;-57
2023/04/28 09:15:29;;;;;;;13.18;8.90;;;;;;;;;;5069665;28;20076;-56
2023/04/28 09:17:55;;;;;;;14.65;9.63;;;12.00;99.90;;;;;;5058932;28;20076;-57
2023/04/28 09:20:22;;;;;;;16.65;10.02;;;;;;;;;;5077364;28;20082;-56
2023/04/28 09:22:49;;;;;;;14.95;9.95;;;12.50;99.90;;;;;;5070387;28;20119;-57
2023/04/28 09:25:15;;;;;;;13.98;9.25;;;12.20;99.90;;;;;;5078003;28;20072;-57
2023/04/28 09:27:40;;;;;;;14.82;9.32;;;11.60;99.90;;;;;;5073727;28;20081;-57
2023/04/28 09:30:08;;;;;;;15.75;10.38;;;11.60;99.90;;;;;;5073578;28;20045;-57
2023/04/28 09:32:35;;;;;;;18.42;10.32;;;12.70;99.90;;;;;;5072647;28;20306;-55
2023/04/28 09:35:01;;;;;;;18.02;9.90;;;11.90;99.90;;;;;;5073995;28;20498;-57
2023/04/28 09:37:29;;;;;;;13.50;8.88;;;12.70;99.90;;;;;;5070050;28;20073;-57
2023/04/28 09:39:56;;;;;;;14.77;9.57;;;13.00;99.90;;;;;;5070461;28;20044;-57
2023/04/28 09:42:37;;;;;;;14.80;9.07;;;12.90;99.90;;;;;;5068363;28;20028;-57
2023/04/28 09:45:11;;;;;;;16.30;9.82;;;13.10;97.00;;;;;;5070161;28;20391;-57
2023/04/28 09:47:48;;;;;;;15.60;9.60;;;12.80;99.90;;;;;;5069012;28;20052;-57
2023/04/28 09:50:17;;;;;;;15.68;10.23;;;13.20;94.60;;;;;;5069120;28;20131;-57
2023/04/28 09:52:44;;;;;;;15.50;10.68;;;11.90;96.00;;;;;;5069786;28;20088;-59
2023/04/28 09:55:11;;;;;;;16.52;9.55;;;12.50;95.20;;;;;;5070253;28;20040;-57
2023/04/28 09:57:37;;;;;;;16.42;9.35;;;;;;;;;;5069422;28;20397;-57
2023/04/28 10:00:05;;;;;;;17.92;10.65;;;12.40;99.90;;;;;;5070041;28;20064;-57
2023/04/28 10:02:33;;;;;;;15.85;10.45;;;12.70;98.90;;;;;;5068297;28;20111;-57
2023/04/28 10:04:59;;;;;;;16.48;11.10;;;12.60;99.90;;;;;;5068571;28;20090;-57
2023/04/28 10:07:29;;;;;;;16.45;10.73;;;12.20;97.50;;;;;;5069234;28;20123;-60
2023/04/28 10:09:55;;;;;;;19.50;10.90;;;12.40;99.90;;;;;;5068901;28;20048;-57
2023/04/28 10:12:22;;;;;;;16.70;10.57;;;;;;;;;;5071532;28;20072;-57
2023/04/28 10:14:49;;;;;;;14.57;10.57;;;12.20;99.90;;;;;;5069901;28;20494;-57
2023/04/28 10:17:16;;;;;;;17.38;10.27;;;12.00;99.90;;;;;;5069880;28;20080;-57
2023/04/28 10:19:44;;;;;;;16.25;11.80;;;11.40;99.90;;;;;;5069326;28;20174;-57
2023/04/28 10:22:34;;;;;;;14.40;9.77;;;11.80;99.90;;;;;;5072138;28;20051;-56
2023/04/28 10:25:24;;;;;;;15.90;10.73;;;11.60;99.90;;;;;;5063826;28;20505;-57
2023/04/28 10:27:50;;;;;;;16.83;11.18;;;12.30;99.90;;;;;;5066004;28;20044;-57
2023/04/28 10:30:24;;;;;;;13.48;9.88;;;12.30;99.90;;;;;;5069803;28;20029;-56
2023/04/28 10:33:12;;;;;;;14.98;10.00;;;12.30;99.90;;;;;;5061898;28;20319;-57
2023/04/28 10:35:39;;;;;;;17.10;11.00;;;12.00;99.90;;;;;;5068049;28;20036;-57
2023/04/28 10:38:07;;;;;;;17.52;11.18;;;12.00;99.90;;;;;;5071508;28;20115;-57
2023/04/28 10:40:37;;;;;;;16.73;11.43;;;11.70;99.90;;;;;;5070802;28;20040;-57
2023/04/28 10:43:04;;;;;;;16.13;11.77;;;;;;;;;;5080072;28;20493;-57
2023/04/28 10:45:47;;;;;;;16.92;11.43;;;12.30;99.90;;;;;;5071286;28;20414;-56
2023/04/28 10:48:14;;;;;;;16.63;10.95;;;12.50;99.90;;;;;;5068278;28;20530;-56
2023/04/28 10:51:08;;;;;;;14.65;11.50;;;12.40;99.90;;;;;;5071637;28;20052;-55
2023/04/28 10:56:18;;;;;;;18.17;11.48;;;12.50;99.90;;;;;;5087246;28;20044;-56
2023/04/28 10:58:45;;;;;;;17.38;11.52;;;12.40;99.90;;;;;;5068854;28;20041;-56
2023/04/28 11:01:23;;;;;;;17.58;11.80;;;12.50;99.90;;;;;;5068280;28;20130;-56
2023/04/28 11:06:34;;;;;;;18.40;12.43;;;12.60;99.90;;;;;;5068800;28;20090;-56
2023/04/28 11:09:13;;;;;;;14.68;10.73;;;13.00;99.90;;;;;;5072469;28;20036;-56
2023/04/28 11:11:59;;;;;;;18.55;11.77;;;12.10;99.90;;;;;;5052881;28;20085;-56
2023/04/28 11:14:24;;;;;;;17.45;11.27;;;13.00;99.90;;;;;;5049922;28;20047;-57
2023/04/28 11:16:58;;;;;;;15.40;10.27;;;12.90;99.90;;;;;;5081846;28;20032;-58
2023/04/28 11:19:27;;;;;;;15.37;11.13;;;12.70;99.90;;;;;;5076002;28;20528;-57
2023/04/28 11:21:55;;;;;;;16.17;12.10;;;12.70;99.90;;;;;;5072955;28;20429;-56
2023/04/28 11:24:21;;;;;;;16.35;11.70;;;12.70;99.90;;;;;;5073000;28;20032;-56
2023/04/28 11:26:47;;;;;;;16.42;10.68;;;12.60;99.90;;;;;;5063776;28;20032;-55
2023/04/28 11:29:16;;;;;;;15.38;10.93;;;12.60;99.90;;;;;;5072974;28;20040;-55
2023/04/28 11:31:51;;;;;;;16.35;10.70;;;13.50;99.90;;;;;;5072440;28;20029;-55
2023/04/28 11:34:20;;;;;;;15.70;11.18;;;13.00;99.90;;;;;;5071666;28;20047;-55
2023/04/28 11:36:46;;;;;;;17.15;11.70;;;12.80;99.90;;;;;;5070631;28;20044;-55
2023/04/28 11:39:12;;;;;;;16.95;12.50;;;12.80;99.90;;;;;;5073034;28;20033;-54
2023/04/28 11:41:40;;;;;;;15.25;10.82;;;13.60;99.90;;;;;;5072137;28;20511;-58
2023/04/28 11:44:13;;;;;;;16.67;11.70;;;12.90;99.90;;;;;;5066884;28;20059;-56
2023/04/28 11:46:49;;;;;;;16.17;11.90;;;13.60;99.90;;;;;;5072137;28;20032;-55
2023/04/28 11:49:16;;;;;;;21.30;12.55;;;12.90;99.90;;;;;;5068817;28;20043;-54
2023/04/28 11:51:44;;;;;;;15.90;12.02;;;13.70;99.90;;;;;;5070536;28;20075;-55
2023/04/28 11:54:10;;;;;;;15.35;10.77;;;13.80;99.90;;;;;;5072404;28;20378;-55
2023/04/28 11:56:41;;;;;;;18.83;11.88;;;13.40;99.90;;;;;;5071864;28;20033;-54
2023/04/28 11:59:11;;;;;;;16.10;11.52;;;13.70;99.90;;;;;;5072446;28;20039;-55
2023/04/28 12:01:52;;;;;;;15.48;11.57;;;14.70;99.90;;;;;;5072648;28;20088;-56
2023/04/28 12:04:36;;;;;;;16.98;12.05;;;14.70;99.90;;;;;;5072578;28;20116;-55
2023/04/28 12:07:13;;;;;;;15.27;11.50;;;15.70;99.90;;;;;;5072109;28;20502;-54
2023/04/28 12:09:41;;;;;;;17.08;11.65;;;14.80;99.90;;;;;;5070202;28;20469;-51
2023/04/28 12:12:11;;;;;;;17.35;11.50;;;15.90;99.90;;;;;;5072237;28;20041;-54
2023/04/28 12:14:56;;;;;;;18.85;11.57;;;15.30;99.90;;;;;;5071888;28;20044;-55
2023/04/28 12:17:26;;;;;;;;;;;15.30;99.90;;;;;;5054289;28;20080;-53
2023/04/28 12:19:52;;;;;;;15.27;11.05;;;15.00;99.90;;;;;;5070710;28;20020;-54
2023/04/28 12:22:18;;;;;;;15.00;11.20;;;15.20;99.90;;;;;;5073315;28;20045;-53
2023/04/28 12:24:45;;;;;;;18.85;12.10;;;15.80;99.90;;;;;;5072071;28;20453;-54
2023/04/28 12:27:20;;;;;;;14.98;11.77;;;15.80;99.90;;;;;;5070943;28;20052;-55
2023/04/28 12:29:47;;;;;;;15.48;11.23;;;15.30;99.90;;;;;;5053774;28;20048;-56
2023/04/28 12:32:13;;;;;;;13.43;11.00;;;14.60;99.90;;;;;;5064989;28;20083;-56
2023/04/28 12:34:40;;;;;;;15.48;11.73;;;14.70;99.90;;;;;;5071708;28;20502;-55
2023/04/28 12:37:07;;;;;;;17.10;11.95;;;14.60;99.90;;;;;;5071274;28;20494;-55
2023/04/28 12:39:35;;;;;;;16.77;11.80;;;14.70;99.90;;;;;;5079574;28;20112;-55
2023/04/28 12:42:02;;;;;;;16.95;10.93;;;14.60;99.90;;;;;;5071169;28;20407;-55
2023/04/28 12:44:34;;;;;;;18.05;12.70;;;;;;;;;;5079595;22;20134;-59
2023/04/28 12:47:02;;;;;;;16.60;12.10;;;;;;;;;;5069505;28;20044;-60
2023/04/28 12:49:27;;;;;;;18.50;13.27;;;13.60;99.90;;;;;;5071139;28;20079;-60
2023/04/28 12:51:53;;;;;;;17.08;12.73;;;13.50;99.90;;;;;;5070458;28;20067;-58
2023/04/28 12:54:18;;;;;;;16.45;12.77;;;13.30;99.90;;;;;;5072427;28;20519;-59
2023/04/28 12:56:44;;;;;;;17.35;12.25;;;13.30;99.90;;;;;;5068536;28;20251;-59
2023/04/28 12:59:10;;;;;;;17.65;13.27;;;;;;;;;;5075410;28;20032;-60
2023/04/28 13:01:36;;;;;;;18.10;13.73;;;;;;;;;;5070321;28;20069;-59
2023/04/28 13:04:02;;;;;;;17.10;13.15;;;13.10;99.90;;;;;;5069542;28;20055;-60
2023/04/28 13:06:28;;;;;;;18.20;13.38;;;13.10;99.90;;;;;;5070190;28;20445;-60
2023/04/28 13:08:54;;;;;;;17.63;13.10;;;13.00;99.90;;;;;;5069796;28;20063;-59
2023/04/28 13:11:20;;;;;;;18.17;13.70;;;;;;;;;;5070387;28;20036;-59
2023/04/28 13:13:46;;;;;;;19.52;14.10;;;;;;;;;;5068717;28;20040;-59